Kalenakliyat 2 — TCBA7 — position and weather

sailwx.info

Track history (hours):
 
Tides and Currents Weather Stations Pressure Air Temp Water Temp Dewpoint Dewpoint Depression Visibility Wind Speed Wind Dir Waves Ship Positions

Kalenakliyat 2

Last reported at 2015-May-02 17:19 UTC. Time now 2015-May-04 20:06 UTC.
Position N 41°17' E 029°31'.

Length 73 m; draft 4.3 m.

Type: Cargo ship. MMSI: 271002023.

Date/timePositionNaut miles runAvg speedWind from/ knotsBaromVisibWave heightAir tempDewpointWater temp
2015-May-02 17:19N 41°17' E 029°31'7 9.3
2015-May-02 16:31N 41°17' E 029°40'  
2015-Apr-25 20:30N 41°15' E 029°17'23 2.1
2015-Apr-25 09:33N 40°53' E 029°11'0 0.0
2015-Apr-25 08:33N 40°53' E 029°11'0 0.0
2015-Apr-25 07:33N 40°53' E 029°11'0 0.0
2015-Apr-25 06:33N 40°53' E 029°11'0 0.0
2015-Apr-25 05:33N 40°53' E 029°11'0 0.0
2015-Apr-25 04:33N 40°53' E 029°11'0 0.0
2015-Apr-25 03:33N 40°53' E 029°11'0 0.0
2015-Apr-25 02:33N 40°53' E 029°11'0 0.0
2015-Apr-25 01:33N 40°53' E 029°11'0 0.1
2015-Apr-25 00:33N 40°53' E 029°11'7 7.2
2015-Apr-24 23:33N 40°50' E 029°02'9 8.4
2015-Apr-24 22:32N 40°49' E 028°51'  
Track history (hours):
 
Tides and Currents Weather Stations Pressure Air Temp Water Temp Dewpoint Dewpoint Depression Visibility Wind Speed Wind Dir Waves Ship Positions

Kalenakliyat 2

Last reported at 2015-May-02 17:19 UTC. Time now 2015-May-04 20:06 UTC.
Position N 41°17' E 029°31'.

Length 73 m; draft 4.3 m.

Type: Cargo ship. MMSI: 271002023.

Date/timePositionNaut miles runAvg speedWind from/ knotsBaromVisibWave heightAir tempDewpointWater temp
2015-May-02 17:19N 41°17' E 029°31'7 9.3
2015-May-02 16:31N 41°17' E 029°40'  
2015-Apr-25 20:30N 41°15' E 029°17'23 2.1
2015-Apr-25 09:33N 40°53' E 029°11'0 0.0
2015-Apr-25 08:33N 40°53' E 029°11'0 0.0
2015-Apr-25 07:33N 40°53' E 029°11'0 0.0
2015-Apr-25 06:33N 40°53' E 029°11'0 0.0
2015-Apr-25 05:33N 40°53' E 029°11'0 0.0
2015-Apr-25 04:33N 40°53' E 029°11'0 0.0
2015-Apr-25 03:33N 40°53' E 029°11'0 0.0
2015-Apr-25 02:33N 40°53' E 029°11'0 0.0
2015-Apr-25 01:33N 40°53' E 029°11'0 0.1
2015-Apr-25 00:33N 40°53' E 029°11'7 7.2
2015-Apr-24 23:33N 40°50' E 029°02'9 8.4
2015-Apr-24 22:32N 40°49' E 028°51'  

Dump ship's entire track history